Time;durP1;ratioP1;P1;durP2;ratioP2;P2;SDS_P1;SDS_P2;PMS_P1;PMS_P2;Temp;Humidity;BMP_temperature;BMP_pressure;BME280_temperature;BME280_humidity;BME280_pressure;Samples;Min_cycle;Max_cycle;Signal;HPM_P1;HPM_P2
2021/12/25 00:01:42;;;;;;;24.75;8.93;;;;;;;;;;5014079;28;20402;-63
2021/12/25 00:04:08;;;;;;;24.65;9.63;;;;;;;;;;5013885;28;20113;-63
2021/12/25 00:06:35;;;;;;;21.08;8.35;;;;;;;;;;5013505;28;20073;-64
2021/12/25 00:09:02;;;;;;;27.73;9.57;;;;;;;;;;5012640;28;20117;-63
2021/12/25 00:11:28;;;;;;;35.35;9.73;;;;;;;;;;5012685;28;20062;-63
2021/12/25 00:13:54;;;;;;;32.38;13.05;;;;;;;;;;5013460;28;20613;-63
2021/12/25 00:16:20;;;;;;;43.33;11.60;;;;;;;;;;5008325;28;20038;-64
2021/12/25 00:18:46;;;;;;;29.42;9.43;;;;;;;;;;4994105;28;20038;-64
2021/12/25 00:21:12;;;;;;;42.95;9.57;;;;;;;;;;5036755;28;20033;-64
2021/12/25 00:23:39;;;;;;;73.60;13.25;;;;;;;;;;5055575;28;20021;-63
2021/12/25 00:26:11;;;;;;;46.97;13.20;;;;;;;;;;5055162;28;20024;-63
2021/12/25 00:36:04;;;;;;;43.00;10.98;;;;;;;;;;5054692;28;20047;-64
2021/12/25 00:38:31;;;;;;;28.42;10.80;;;;;;;;;;5036737;28;20481;-64
2021/12/25 00:40:57;;;;;;;17.90;8.05;;;;;;;;;;5037225;28;20025;-64
2021/12/25 00:43:24;;;;;;;24.27;9.38;;;;;;;;;;5054657;28;20477;-63
2021/12/25 00:45:50;;;;;;;21.17;8.88;;;;;;;;;;5036139;28;20495;-63
2021/12/25 00:48:17;;;;;;;28.50;8.52;;;;;;;;;;5054600;28;20496;-63
2021/12/25 00:50:43;;;;;;;16.13;7.38;;;;;;;;;;5055087;28;20029;-64
2021/12/25 00:53:09;;;;;;;23.67;8.27;;;;;;;;;;5054670;28;20035;-64
2021/12/25 00:55:35;;;;;;;21.75;9.55;;;;;;;;;;5054930;28;20061;-64
2021/12/25 00:58:01;;;;;;;30.77;13.65;;;;;;;;;;5034095;28;20025;-64
2021/12/25 01:00:27;;;;;;;38.13;15.85;;;;;;;;;;5054613;28;20113;-63
2021/12/25 01:02:54;;;;;;;37.72;13.98;;;;;;;;;;5054752;28;20029;-63
2021/12/25 01:05:20;;;;;;;36.75;13.23;;;;;;;;;;5026967;28;20034;-64
2021/12/25 01:07:46;;;;;;;31.52;10.02;;;;;;;;;;5016746;28;20040;-64
2021/12/25 01:10:18;;;;;;;72.18;12.00;;;;;;;;;;5029448;28;20025;-63
2021/12/25 01:15:17;;;;;;;22.35;10.00;;;;;;;;;;5056375;28;20405;-64
2021/12/25 01:48:20;;;;;;;74.55;9.27;;;;;;;;;;5007436;28;20061;-64
2021/12/25 01:50:47;;;;;;;83.93;9.35;;;;;;;;;;4993308;28;20465;-64
2021/12/25 01:53:13;;;;;;;19.95;5.57;;;;;;;;;;4976021;28;20042;-64
2021/12/25 01:55:40;;;;;;;20.80;5.80;;;;;;;;;;4990727;28;20152;-64
2021/12/25 01:58:08;;;;;;;19.75;5.93;;;;;;;;;;5011504;28;20148;-64
2021/12/25 02:00:34;;;;;;;11.73;4.53;;;;;;;;;;4983588;28;20030;-64
2021/12/25 02:03:01;;;;;;;16.23;4.88;;;;;;;;;;4992601;28;20035;-64
2021/12/25 02:05:27;;;;;;;26.02;5.28;;;;;;;;;;4975735;28;20034;-64
2021/12/25 02:07:53;;;;;;;29.88;6.20;;;;;;;;;;4975628;28;20121;-64
2021/12/25 02:10:19;;;;;;;17.77;5.50;;;;;;;;;;4991499;28;20046;-64
2021/12/25 02:12:48;;;;;;;20.25;4.75;;;;;;;;;;4992048;28;20045;-64
2021/12/25 02:15:18;;;;;;;14.52;5.03;;;;;;;;;;4991851;28;20117;-63
2021/12/25 02:18:01;;;;;;;36.03;11.48;;;;;;;;;;5015612;28;20055;-64
2021/12/25 02:21:10;;;;;;;37.03;11.25;;;;;;;;;;5033781;28;20128;-64
2021/12/25 02:23:37;;;;;;;31.90;9.65;;;;;;;;;;5032514;28;20486;-64
2021/12/25 02:26:04;;;;;;;19.75;7.82;;;;;;;;;;5035321;28;20504;-64
2021/12/25 02:28:30;;;;;;;23.35;8.30;;;;;;;;;;5035051;28;20028;-64
2021/12/25 02:30:58;;;;;;;32.53;7.75;;;;;;;;;;5028171;28;20025;-64
2021/12/25 02:33:26;;;;;;;23.67;6.30;;;;;;;;;;5031870;28;20497;-64
2021/12/25 02:35:52;;;;;;;23.20;5.78;;;;;;;;;;5050981;28;20035;-64
2021/12/25 02:38:18;;;;;;;23.02;8.20;;;;;;;;;;5031324;28;20061;-64
2021/12/25 02:40:44;;;;;;;24.85;7.88;;;;;;;;;;5015467;28;20104;-64
2021/12/25 02:43:11;;;;;;;23.88;7.05;;;;;;;;;;5015401;28;20025;-64
2021/12/25 02:45:37;;;;;;;26.75;6.88;;;;;;;;;;5015101;28;20060;-64
2021/12/25 02:48:09;;;;;;;41.25;10.05;;;;;;;;;;5037978;28;20420;-64
2021/12/25 02:50:35;;;;;;;15.98;6.60;;;;;;;;;;5050893;28;20116;-64
2021/12/25 02:53:02;;;;;;;19.45;5.90;;;;;;;;;;5018701;28;20027;-64
2021/12/25 02:55:29;;;;;;;17.75;6.25;;;;;;;;;;5029484;28;20030;-64
2021/12/25 02:57:55;;;;;;;20.52;6.10;;;;;;;;;;5034623;28;20036;-64
2021/12/25 03:00:27;;;;;;;21.23;8.02;;;;;;;;;;5043056;28;20043;-64
2021/12/25 03:02:54;;;;;;;22.45;5.88;;;;;;;;;;5035597;28;20532;-64
2021/12/25 03:05:20;;;;;;;20.75;5.03;;;;;;;;;;5034448;28;20071;-64
2021/12/25 03:07:47;;;;;;;17.13;5.43;;;;;;;;;;5040763;28;20025;-64
2021/12/25 03:10:14;;;;;;;19.15;6.03;;;;;;;;;;5050301;28;20376;-64
2021/12/25 03:13:04;;;;;;;11.20;4.90;;;;;;;;;;5045379;28;20033;-64
2021/12/25 03:15:41;;;;;;;10.02;4.45;;;;;;;;;;5037833;28;20185;-64
2021/12/25 03:18:08;;;;;;;11.07;4.35;;;;;;;;;;5071155;28;20040;-64
2021/12/25 03:20:36;;;;;;;13.77;4.00;;;;;;;;;;5034467;28;20373;-64
2021/12/25 03:23:02;;;;;;;7.20;4.10;;;;;;;;;;5025285;28;20167;-64
2021/12/25 03:25:28;;;;;;;10.57;5.25;;;;;;;;;;5051818;28;20087;-64
2021/12/25 03:27:56;;;;;;;83.07;8.48;;;;;;;;;;5018454;28;20402;-64
2021/12/25 03:30:24;;;;;;;18.15;6.20;;;;;;;;;;5014262;28;20029;-64
2021/12/25 03:32:50;;;;;;;13.45;5.72;;;;;;;;;;5026849;28;20033;-64
2021/12/25 03:35:17;;;;;;;39.50;13.18;;;;;;;;;;5033862;28;20110;-64
2021/12/25 03:37:44;;;;;;;53.30;18.80;;;;;;;;;;5051425;28;20060;-64
2021/12/25 03:40:10;;;;;;;44.47;20.63;;;;;;;;;;5051908;28;20025;-64
2021/12/25 03:42:36;;;;;;;53.55;20.05;;;;;;;;;;5034025;28;20485;-64
2021/12/25 03:45:03;;;;;;;55.40;23.45;;;;;;;;;;5034011;28;20032;-64
2021/12/25 03:47:34;;;;;;;48.80;17.70;;;;;;;;;;5022219;28;20029;-64
2021/12/25 03:58:36;;;;;;;42.85;16.70;;;;;;;;;;4991190;28;20497;-64
2021/12/25 04:01:23;;;;;;;36.95;16.60;;;;;;;;;;4979839;28;20047;-64
2021/12/25 04:04:05;;;;;;;33.17;14.95;;;;;;;;;;4999561;28;20072;-64
2021/12/25 04:06:31;;;;;;;30.33;13.85;;;;;;;;;;4981826;28;20042;-64
2021/12/25 04:08:58;;;;;;;30.92;13.93;;;;;;;;;;4983080;28;20030;-64
2021/12/25 04:11:29;;;;;;;36.35;15.07;;;;;;;;;;4983066;28;20065;-64
2021/12/25 04:13:56;;;;;;;33.97;12.32;;;;;;;;;;4981538;28;20538;-64
2021/12/25 04:16:28;;;;;;;28.17;9.85;;;;;;;;;;4987718;28;20105;-64
2021/12/25 04:18:55;;;;;;;17.58;6.32;;;;;;;;;;4982363;28;20018;-64
2021/12/25 04:21:23;;;;;;;24.30;6.00;;;;;;;;;;4985503;28;20530;-64
2021/12/25 04:23:50;;;;;;;17.58;4.57;;;;;;;;;;4982935;28;20057;-64
2021/12/25 04:26:16;;;;;;;25.25;5.45;;;;;;;;;;5016955;28;20029;-64
2021/12/25 04:28:49;;;;;;;30.48;5.88;;;;;;;;;;5028665;28;20028;-64
2021/12/25 05:04:24;;;;;;;24.95;5.35;;;;;;;;;;5013073;28;20046;-64
2021/12/25 05:07:08;;;;;;;13.38;5.22;;;;;;;;;;5013393;28;20457;-64
2021/12/25 05:09:34;;;;;;;16.83;5.43;;;;;;;;;;4989673;28;20031;-64
2021/12/25 05:12:00;;;;;;;14.20;4.78;;;;;;;;;;4993641;28;20033;-64
2021/12/25 05:14:27;;;;;;;15.98;3.70;;;;;;;;;;4997682;28;20441;-64
2021/12/25 05:16:53;;;;;;;11.13;3.50;;;;;;;;;;5010615;28;20038;-64
2021/12/25 05:19:21;;;;;;;13.55;3.42;;;;;;;;;;4989721;28;20528;-64
2021/12/25 05:21:47;;;;;;;22.50;3.55;;;;;;;;;;4999216;28;20021;-64
2021/12/25 05:24:14;;;;;;;14.90;3.60;;;;;;;;;;4996711;28;20030;-64
2021/12/25 05:26:45;;;;;;;9.27;2.60;;;;;;;;;;4994901;28;20033;-64
2021/12/25 05:29:12;;;;;;;18.65;5.30;;;;;;;;;;4985975;28;20037;-64
2021/12/25 05:31:38;;;;;;;13.52;2.95;;;;;;;;;;5012357;28;20046;-64
2021/12/25 05:34:30;;;;;;;12.70;3.42;;;;;;;;;;5009238;28;20038;-64
2021/12/25 05:37:08;;;;;;;11.82;2.45;;;;;;;;;;4994111;28;20037;-64
2021/12/25 05:39:53;;;;;;;10.07;2.55;;;;;;;;;;5032764;28;20106;-64
2021/12/25 05:42:23;;;;;;;10.18;2.47;;;;;;;;;;5029636;28;20025;-65
2021/12/25 05:44:51;;;;;;;16.67;2.53;;;;;;;;;;5018992;28;20109;-65
2021/12/25 05:47:23;;;;;;;8.98;2.42;;;;;;;;;;5026079;28;20386;-65
2021/12/25 05:49:53;;;;;;;15.00;2.80;;;;;;;;;;5023951;28;20064;-65
2021/12/25 05:52:24;;;;;;;10.18;2.50;;;;;;;;;;5024349;28;20394;-64
2021/12/25 05:55:10;;;;;;;12.27;3.22;;;;;;;;;;5022628;28;20112;-64
2021/12/25 05:57:36;;;;;;;11.32;2.47;;;;;;;;;;5023998;28;20040;-64
2021/12/25 06:00:15;;;;;;;10.23;3.22;;;;;;;;;;5020376;28;20040;-64
2021/12/25 06:02:42;;;;;;;8.80;2.28;;;;;;;;;;5022671;28;20116;-64
2021/12/25 06:05:11;;;;;;;11.23;2.22;;;;;;;;;;5025175;28;20122;-64
2021/12/25 06:07:37;;;;;;;13.70;2.10;;;;;;;;;;5031718;28;20037;-65
2021/12/25 06:10:07;;;;;;;13.82;2.85;;;;;;;;;;5023033;28;20068;-65
2021/12/25 06:12:34;;;;;;;12.63;2.75;;;;;;;;;;5029757;28;20088;-65
2021/12/25 06:15:02;;;;;;;12.25;2.25;;;;;;;;;;5025868;28;20053;-65
2021/12/25 06:17:46;;;;;;;6.95;2.30;;;;;;;;;;5023751;28;20437;-65
2021/12/25 06:20:19;;;;;;;15.30;2.33;;;;;;;;;;5026219;28;20116;-65
2021/12/25 06:23:08;;;;;;;14.80;2.30;;;;;;;;;;4983711;28;20034;-65
2021/12/25 06:25:53;;;;;;;6.45;1.80;;;;;;;;;;4985555;28;20124;-65
2021/12/25 06:28:27;;;;;;;9.52;2.20;;;;;;;;;;4971879;28;20034;-65
2021/12/25 06:31:16;;;;;;;8.27;2.00;;;;;;;;;;4986454;28;20051;-64
2021/12/25 06:33:58;;;;;;;15.30;3.45;;;;;;;;;;4971472;28;20150;-65
2021/12/25 06:36:39;;;;;;;12.20;1.95;;;;;;;;;;4985954;28;20065;-65
2021/12/25 06:39:26;;;;;;;7.80;1.98;;;;;;;;;;4984819;28;20029;-65
2021/12/25 06:42:00;;;;;;;13.75;2.00;;;;;;;;;;4987476;28;20035;-65
2021/12/25 06:44:27;;;;;;;10.07;2.40;;;;;;;;;;4974060;28;20494;-65
2021/12/25 06:46:54;;;;;;;9.85;2.08;;;;;;;;;;4972150;28;20185;-65
2021/12/25 06:49:23;;;;;;;6.35;2.20;;;;;;;;;;4972197;28;20043;-65
2021/12/25 06:52:04;;;;;;;12.20;2.17;;;;;;;;;;4986887;28;20507;-65
2021/12/25 06:54:41;;;;;;;13.05;1.88;;;;;;;;;;4971980;28;20038;-65
2021/12/25 06:57:30;;;;;;;7.72;2.00;;;;;;;;;;4986922;28;20043;-65
2021/12/25 06:59:56;;;;;;;9.20;2.15;;;;;;;;;;5000124;28;20095;-65
2021/12/25 07:02:23;;;;;;;7.30;2.22;;;;;;;;;;5023461;28;20026;-65
2021/12/25 07:05:07;;;;;;;9.77;2.00;;;;;;;;;;5029707;28;20095;-65
2021/12/25 07:08:04;;;;;;;13.15;2.70;;;;;;;;;;5020309;28;20033;-65
2021/12/25 07:10:59;;;;;;;12.02;1.90;;;;;;;;;;5024337;28;20029;-65
2021/12/25 07:13:52;;;;;;;9.88;2.08;;;;;;;;;;5021125;28;20034;-65
2021/12/25 07:16:36;;;;;;;12.02;2.67;;;;;;;;;;5025974;28;20040;-65
2021/12/25 07:19:21;;;;;;;7.82;2.80;;;;;;;;;;5027187;28;20409;-65
2021/12/25 07:22:08;;;;;;;7.70;2.88;;;;;;;;;;5020373;28;20405;-65
2021/12/25 07:24:52;;;;;;;9.50;2.53;;;;;;;;;;5024227;28;20112;-65
2021/12/25 07:27:41;;;;;;;10.07;2.45;;;;;;;;;;4981667;28;20038;-65
2021/12/25 07:30:08;;;;;;;11.38;2.58;;;;;;;;;;4991604;28;20157;-65
2021/12/25 07:32:36;;;;;;;10.57;2.60;;;;;;;;;;4984525;28;20058;-65
2021/12/25 07:35:03;;;;;;;12.43;3.22;;;;;;;;;;4983012;28;20038;-64
2021/12/25 07:37:29;;;;;;;4.90;2.40;;;;;;;;;;4974181;28;20046;-65
2021/12/25 07:39:56;;;;;;;8.75;2.50;;;;;;;;;;4988853;28;20042;-65
2021/12/25 07:42:22;;;;;;;9.73;3.38;;;;;;;;;;4990558;28;20030;-65
2021/12/25 07:45:17;;;;;;;10.68;2.67;;;;;;;;;;4943657;29;20114;-65
2021/12/25 07:47:49;;;;;;;12.30;2.60;;;;;;;;;;4942880;29;20533;-65
2021/12/25 07:50:16;;;;;;;11.65;2.90;;;;;;;;;;4943384;29;20122;-65
2021/12/25 07:52:43;;;;;;;20.67;3.40;;;;;;;;;;4943873;29;20537;-65
2021/12/25 07:55:10;;;;;;;12.73;3.58;;;;;;;;;;4944922;29;20047;-65
2021/12/25 07:57:36;;;;;;;13.68;3.45;;;;;;;;;;4941050;29;20594;-65
2021/12/25 08:00:02;;;;;;;9.68;3.47;;;;;;;;;;4945476;29;20560;-65
2021/12/25 08:02:38;;;;;;;13.68;4.18;;;;;;;;;;4942115;29;20046;-65
2021/12/25 08:05:04;;;;;;;7.13;3.10;;;;;;;;;;4957794;28;20117;-65
2021/12/25 08:07:31;;;;;;;11.80;3.53;;;;;;;;;;4969236;28;20043;-65
2021/12/25 08:10:11;;;;;;;12.82;4.00;;;;;;;;;;4968574;28;20047;-65
2021/12/25 08:12:37;;;;;;;8.93;3.80;;;;;;;;;;4952495;28;20451;-65
2021/12/25 08:15:03;;;;;;;14.73;3.78;;;;;;;;;;4967746;28;20039;-64
2021/12/25 08:17:29;;;;;;;9.75;3.67;;;;;;;;;;4968661;28;20030;-64
2021/12/25 08:20:22;;;;;;;13.10;3.70;;;;;;;;;;4970623;28;20023;-65
2021/12/25 08:23:07;;;;;;;12.75;4.35;;;;;;;;;;5003444;28;20045;-65
2021/12/25 08:25:51;;;;;;;14.25;3.78;;;;;;;;;;5005713;28;20080;-65
2021/12/25 08:28:40;;;;;;;14.05;3.50;;;;;;;;;;5010729;28;20034;-64
2021/12/25 08:31:25;;;;;;;10.35;3.40;;;;;;;;;;5006499;28;20092;-64
2021/12/25 08:34:14;;;;;;;9.77;3.10;;;;;;;;;;4969740;28;20039;-64
2021/12/25 08:37:00;;;;;;;10.43;3.58;;;;;;;;;;4970098;28;20058;-64
2021/12/25 08:39:26;;;;;;;8.38;3.38;;;;;;;;;;4970571;28;20039;-64
2021/12/25 08:42:00;;;;;;;10.27;3.70;;;;;;;;;;4969919;28;20472;-64
2021/12/25 08:44:36;;;;;;;11.20;4.07;;;;;;;;;;4971904;28;20053;-64
2021/12/25 08:47:04;;;;;;;7.60;3.55;;;;;;;;;;4970151;28;20118;-64
2021/12/25 08:49:31;;;;;;;9.90;4.25;;;;;;;;;;4973478;28;20042;-64
2021/12/25 08:51:58;;;;;;;15.15;3.80;;;;;;;;;;4968397;28;20042;-64
2021/12/25 08:54:25;;;;;;;10.68;4.20;;;;;;;;;;4966520;28;20093;-64
2021/12/25 08:56:51;;;;;;;8.23;4.00;;;;;;;;;;4968152;28;20478;-64
2021/12/25 08:59:17;;;;;;;9.43;2.83;;;;;;;;;;4971373;28;20526;-64
2021/12/25 09:01:43;;;;;;;9.73;2.72;;;;;;;;;;4971312;28;20493;-64
2021/12/25 09:04:09;;;;;;;17.05;3.10;;;;;;;;;;4973080;28;20038;-64
2021/12/25 09:06:37;;;;;;;11.77;2.60;;;;;;;;;;4970125;28;20035;-65
2021/12/25 09:09:05;;;;;;;10.57;2.58;;;;;;;;;;4969659;28;20130;-65
2021/12/25 09:11:32;;;;;;;13.50;3.67;;;;;;;;;;4992005;28;22121;-65
2021/12/25 09:13:58;;;;;;;9.80;2.80;;;;;;;;;;5007563;28;20113;-65
2021/12/25 09:16:24;;;;;;;15.35;3.15;;;;;;;;;;5011306;28;20105;-65
2021/12/25 09:18:50;;;;;;;9.30;2.92;;;;;;;;;;5013172;28;20037;-65
2021/12/25 09:21:16;;;;;;;12.60;3.80;;;;;;;;;;5005108;28;20030;-65
2021/12/25 09:23:42;;;;;;;20.30;6.93;;;;;;;;;;5010831;28;20441;-65
2021/12/25 09:26:09;;;;;;;25.67;12.50;;;;;;;;;;5009860;28;20054;-65
2021/12/25 09:28:35;;;;;;;24.80;12.35;;;;;;;;;;5009215;28;20109;-65
2021/12/25 09:31:01;;;;;;;22.85;7.45;;;;;;;;;;5006614;28;20445;-65
2021/12/25 09:33:29;;;;;;;34.45;14.25;;;;;;;;;;5007760;28;20034;-65
2021/12/25 09:35:56;;;;;;;48.70;17.13;;;;;;;;;;5014909;28;20030;-65
2021/12/25 09:38:22;;;;;;;27.30;14.63;;;;;;;;;;5048871;28;20418;-65
2021/12/25 09:40:48;;;;;;;18.92;9.25;;;;;;;;;;5049837;28;20022;-65
2021/12/25 09:43:17;;;;;;;17.95;10.20;;;;;;;;;;5046040;28;20032;-65
2021/12/25 09:45:44;;;;;;;13.32;5.65;;;;;;;;;;5048783;28;20044;-65
2021/12/25 09:48:10;;;;;;;20.30;8.23;;;;;;;;;;5047539;28;20094;-65
2021/12/25 09:50:36;;;;;;;26.13;6.85;;;;;;;;;;5051646;28;20025;-65
2021/12/25 09:53:09;;;;;;;19.80;8.57;;;;;;;;;;5044577;28;20112;-65
2021/12/25 09:55:38;;;;;;;17.80;6.03;;;;;;;;;;5048885;28;20036;-65
2021/12/25 09:58:04;;;;;;;12.25;4.18;;;;;;;;;;5047392;28;20519;-65
2021/12/25 10:00:30;;;;;;;10.77;4.53;;;;;;;;;;5045800;28;20036;-65
2021/12/25 10:02:58;;;;;;;13.95;5.00;;;;;;;;;;5052871;28;20039;-65
2021/12/25 10:05:32;;;;;;;10.70;5.45;;;;;;;;;;5042272;28;20533;-65
2021/12/25 10:08:17;;;;;;;12.25;6.25;;;;;;;;;;5042004;28;20040;-65
2021/12/25 10:10:46;;;;;;;8.07;4.03;;;;;;;;;;5041676;28;20032;-65
2021/12/25 10:13:30;;;;;;;13.73;6.60;;;;;;;;;;5048990;28;20104;-65
2021/12/25 10:16:01;;;;;;;9.00;3.05;;;;;;;;;;5039189;28;20033;-64
2021/12/25 10:18:27;;;;;;;11.52;3.45;;;;;;;;;;5033769;28;20029;-64
2021/12/25 10:20:53;;;;;;;7.22;3.10;;;;;;;;;;5043341;28;20041;-65
2021/12/25 10:23:25;;;;;;;10.88;3.20;;;;;;;;;;5025853;28;20026;-65
2021/12/25 10:25:53;;;;;;;11.10;3.28;;;;;;;;;;5045041;28;20441;-65
2021/12/25 10:28:33;;;;;;;8.43;5.25;;;;;;;;;;5046695;28;20021;-65
2021/12/25 10:31:01;;;;;;;15.13;3.67;;;;;;;;;;5048382;28;20500;-65
2021/12/25 10:33:35;;;;;;;8.10;3.58;;;;;;;;;;5042752;28;20029;-65
2021/12/25 10:36:04;;;;;;;8.75;2.63;;;;;;;;;;5047746;28;20083;-64
2021/12/25 10:38:31;;;;;;;15.43;3.60;;;;;;;;;;5050906;28;20060;-64
2021/12/25 10:41:18;;;;;;;9.65;2.17;;;;;;;;;;5046735;28;20514;-64
2021/12/25 10:43:47;;;;;;;16.33;4.50;;;;;;;;;;5043399;28;20029;-64
2021/12/25 10:46:13;;;;;;;7.18;2.80;;;;;;;;;;5050260;28;20023;-64
2021/12/25 10:48:39;;;;;;;10.60;3.13;;;;;;;;;;5049063;28;20037;-64
2021/12/25 10:51:05;;;;;;;7.82;3.03;;;;;;;;;;5043847;28;20101;-65
2021/12/25 10:53:42;;;;;;;8.40;3.17;;;;;;;;;;5045931;28;20408;-64
2021/12/25 10:56:13;;;;;;;9.23;3.78;;;;;;;;;;5046824;28;20366;-65
2021/12/25 10:58:39;;;;;;;10.27;3.00;;;;;;;;;;5045507;28;20053;-65
2021/12/25 11:01:07;;;;;;;7.43;2.38;;;;;;;;;;5038406;28;20037;-65
2021/12/25 11:03:37;;;;;;;16.92;4.72;;;;;;;;;;5046993;28;20029;-65
2021/12/25 11:06:08;;;;;;;16.33;5.15;;;;;;;;;;5046375;28;20035;-65
2021/12/25 11:08:35;;;;;;;11.57;3.13;;;;;;;;;;5046348;28;20040;-65
2021/12/25 11:11:03;;;;;;;13.40;2.78;;;;;;;;;;5047164;28;20047;-65
2021/12/25 11:13:29;;;;;;;8.48;2.55;;;;;;;;;;5046138;28;20037;-64
2021/12/25 11:16:03;;;;;;;11.00;3.10;;;;;;;;;;5038551;28;20033;-64
2021/12/25 11:18:30;;;;;;;11.40;3.67;;;;;;;;;;5042801;28;20378;-64
2021/12/25 11:20:59;;;;;;;14.73;5.30;;;;;;;;;;5042323;28;20024;-64
2021/12/25 11:23:27;;;;;;;14.45;6.47;;;;;;;;;;5043749;28;20025;-64
2021/12/25 11:25:53;;;;;;;22.15;11.35;;;;;;;;;;5042150;28;20029;-64
2021/12/25 11:28:19;;;;;;;19.42;7.90;;;;;;;;;;5044637;28;20102;-64
2021/12/25 11:30:47;;;;;;;29.33;7.18;;;;;;;;;;5050038;28;20029;-64
2021/12/25 11:33:13;;;;;;;14.95;5.43;;;;;;;;;;5055627;28;20508;-64
2021/12/25 11:35:40;;;;;;;16.38;5.55;;;;;;;;;;5045253;28;20029;-64
2021/12/25 11:38:07;;;;;;;20.20;4.82;;;;;;;;;;5048604;28;20040;-64
2021/12/25 11:40:36;;;;;;;16.42;3.90;;;;;;;;;;5045572;28;20028;-64
2021/12/25 11:43:04;;;;;;;6.45;3.60;;;;;;;;;;5047701;28;20040;-64
2021/12/25 11:45:41;;;;;;;14.23;3.03;;;;;;;;;;5044828;28;20021;-64
2021/12/25 11:48:13;;;;;;;13.60;3.00;;;;;;;;;;5052078;28;20518;-64
2021/12/25 11:50:42;;;;;;;11.57;2.75;;;;;;;;;;5042696;28;20033;-64
2021/12/25 11:53:26;;;;;;;5.90;2.10;;;;;;;;;;5043142;28;20037;-64
2021/12/25 11:58:39;;;;;;;9.95;3.17;;;;;;;;;;5050312;28;20040;-64
2021/12/25 12:01:24;;;;;;;11.93;3.05;;;;;;;;;;5051238;28;20036;-64
2021/12/25 12:03:57;;;;;;;15.38;2.80;;;;;;;;;;5049832;28;20025;-64
2021/12/25 12:06:41;;;;;;;8.45;3.10;;;;;;;;;;5049131;28;20051;-64
2021/12/25 12:09:10;;;;;;;15.95;2.88;;;;;;;;;;5046341;28;20161;-62
2021/12/25 12:12:16;;;;;;;7.65;2.63;;;;;;;;;;5048446;28;20474;-62
2021/12/25 12:15:12;;;;;;;17.48;3.40;;;;;;;;;;5047430;28;20032;-62
2021/12/25 12:20:56;;;;;;;8.07;2.10;;;;;;;;;;4992382;28;20090;-64
2021/12/25 12:23:36;;;;;;;14.23;2.45;;;;;;;;;;4992769;28;20117;-64
2021/12/25 12:26:09;;;;;;;7.95;2.70;;;;;;;;;;4995561;28;20033;-64
2021/12/25 12:28:44;;;;;;;6.93;2.50;;;;;;;;;;4994069;28;20037;-64
2021/12/25 12:31:30;;;;;;;5.65;2.60;;;;;;;;;;4990829;28;20521;-64
2021/12/25 12:33:56;;;;;;;13.90;3.00;;;;;;;;;;4991650;28;20042;-64
2021/12/25 12:36:24;;;;;;;11.93;2.80;;;;;;;;;;4989097;28;20038;-64
2021/12/25 12:38:54;;;;;;;8.50;2.15;;;;;;;;;;4993045;28;20031;-64
2021/12/25 12:41:26;;;;;;;7.68;2.60;;;;;;;;;;4993271;28;20054;-64
2021/12/25 12:44:04;;;;;;;6.68;2.70;;;;;;;;;;4991418;28;20086;-63
2021/12/25 12:46:50;;;;;;;10.35;3.40;;;;;;;;;;4992684;28;20026;-62
2021/12/25 12:49:30;;;;;;;9.13;3.22;;;;;;;;;;5025037;28;20060;-63
2021/12/25 12:52:15;;;;;;;11.65;4.72;;;;;;;;;;5051239;28;20021;-62
2021/12/25 12:54:47;;;;;;;11.32;3.55;;;;;;;;;;5041941;28;20022;-62
2021/12/25 12:57:37;;;;;;;15.30;3.90;;;;;;;;;;5042091;28;20028;-63
2021/12/25 13:00:12;;;;;;;5.18;3.17;;;;;;;;;;5035206;28;20039;-63
2021/12/25 13:02:46;;;;;;;12.00;3.05;;;;;;;;;;5038119;28;20033;-63
2021/12/25 13:05:12;;;;;;;10.65;2.92;;;;;;;;;;5041031;28;20033;-63
2021/12/25 13:07:42;;;;;;;10.30;2.80;;;;;;;;;;5043249;28;20032;-63
2021/12/25 13:10:21;;;;;;;6.82;3.05;;;;;;;;;;5044291;28;20037;-63
2021/12/25 13:12:50;;;;;;;10.18;2.90;;;;;;;;;;5047536;28;20062;-63
2021/12/25 13:15:19;;;;;;;8.38;2.70;;;;;;;;;;5039988;28;20033;-63
2021/12/25 13:17:49;;;;;;;8.88;2.90;;;;;;;;;;5041088;28;20029;-63
2021/12/25 13:20:15;;;;;;;7.30;3.38;;;;;;;;;;5048334;28;20021;-63
2021/12/25 13:22:41;;;;;;;9.95;3.25;;;;;;;;;;5045007;28;20112;-63
2021/12/25 13:25:09;;;;;;;11.75;2.88;;;;;;;;;;5050861;28;20037;-63
2021/12/25 13:27:35;;;;;;;8.18;2.88;;;;;;;;;;5045554;28;20028;-63
2021/12/25 13:30:06;;;;;;;7.38;3.35;;;;;;;;;;5044745;28;20472;-69
2021/12/25 13:32:32;;;;;;;9.95;3.58;;;;;;;;;;5048147;28;20488;-63
2021/12/25 13:34:58;;;;;;;9.68;3.47;;;;;;;;;;5048561;28;20033;-63
2021/12/25 13:37:25;;;;;;;11.52;3.55;;;;;;;;;;5042666;28;20033;-63
2021/12/25 13:39:51;;;;;;;8.55;3.60;;;;;;;;;;5046424;28;20063;-64
2021/12/25 13:42:18;;;;;;;8.23;3.83;;;;;;;;;;5046016;28;20070;-62
2021/12/25 13:44:46;;;;;;;7.45;3.42;;;;;;;;;;5045419;28;20074;-62
2021/12/25 13:47:17;;;;;;;9.55;3.63;;;;;;;;;;5041800;28;20041;-63
2021/12/25 13:49:45;;;;;;;11.95;4.35;;;;;;;;;;5045523;28;20119;-63
2021/12/25 13:52:13;;;;;;;11.23;3.58;;;;;;;;;;5045353;28;20074;-62
2021/12/25 13:54:41;;;;;;;11.50;4.60;;;;;;;;;;5043968;28;20056;-62
2021/12/25 13:57:08;;;;;;;9.60;4.90;;;;;;;;;;5043778;28;20482;-63
2021/12/25 13:59:35;;;;;;;7.95;4.50;;;;;;;;;;5045724;28;20074;-62
2021/12/25 14:02:05;;;;;;;21.52;6.53;;;;;;;;;;5045298;28;20025;-63
2021/12/25 14:04:32;;;;;;;12.18;9.57;;;;;;;;;;5046016;28;20507;-62
2021/12/25 14:06:59;;;;;;;8.77;4.90;;;;;;;;;;5049182;28;20024;-62
2021/12/25 14:09:25;;;;;;;9.18;4.55;;;;;;;;;;5042425;28;20133;-63
2021/12/25 14:11:52;;;;;;;15.48;8.15;;;;;;;;;;5047498;28;20416;-63
2021/12/25 14:14:19;;;;;;;15.43;8.35;;;;;;;;;;5041698;28;20390;-63
2021/12/25 14:16:46;;;;;;;17.42;6.65;;;;;;;;;;5050140;28;20033;-63
2021/12/25 14:19:13;;;;;;;13.52;6.70;;;;;;;;;;5050327;28;20120;-63
2021/12/25 14:21:40;;;;;;;11.43;4.80;;;;;;;;;;5046084;28;20067;-63
2021/12/25 14:24:13;;;;;;;12.90;4.22;;;;;;;;;;5044922;28;20063;-63
2021/12/25 14:26:39;;;;;;;8.82;3.85;;;;;;;;;;5042899;28;20465;-63
2021/12/25 14:29:21;;;;;;;8.45;4.13;;;;;;;;;;5049752;28;20076;-63
2021/12/25 14:31:47;;;;;;;11.50;4.15;;;;;;;;;;5046186;28;20017;-63
2021/12/25 14:34:13;;;;;;;10.77;4.32;;;;;;;;;;5041893;28;20489;-63
2021/12/25 14:36:41;;;;;;;10.63;4.40;;;;;;;;;;5045373;28;20069;-63
2021/12/25 14:39:08;;;;;;;11.45;5.15;;;;;;;;;;5042739;28;20029;-63
2021/12/25 14:41:38;;;;;;;20.33;4.88;;;;;;;;;;5042832;28;20021;-62
2021/12/25 14:44:34;;;;;;;15.32;4.03;;;;;;;;;;5042635;28;20040;-63
2021/12/25 14:47:20;;;;;;;13.00;3.65;;;;;;;;;;5029682;28;20057;-62
2021/12/25 14:49:48;;;;;;;6.97;3.45;;;;;;;;;;5047560;28;20359;-62
2021/12/25 14:52:15;;;;;;;14.05;3.95;;;;;;;;;;5048156;28;20102;-62
2021/12/25 14:54:44;;;;;;;7.65;3.47;;;;;;;;;;5046962;28;20060;-62
2021/12/25 14:57:20;;;;;;;11.00;4.40;;;;;;;;;;5045643;28;20112;-62
2021/12/25 14:59:46;;;;;;;8.80;3.65;;;;;;;;;;5049652;28;20059;-62
2021/12/25 15:02:19;;;;;;;10.52;4.13;;;;;;;;;;5048232;28;20393;-62
2021/12/25 15:04:48;;;;;;;9.18;4.40;;;;;;;;;;5052218;28;20025;-62
2021/12/25 15:07:14;;;;;;;7.95;3.70;;;;;;;;;;5046568;28;20029;-62
2021/12/25 15:09:42;;;;;;;15.38;5.05;;;;;;;;;;5049795;28;20029;-62
2021/12/25 15:12:12;;;;;;;15.43;5.72;;;;;;;;;;5044330;28;20028;-62
2021/12/25 15:14:41;;;;;;;8.93;5.15;;;;;;;;;;5047641;28;20104;-62
2021/12/25 15:17:12;;;;;;;12.98;5.13;;;;;;;;;;5031479;28;20451;-62
2021/12/25 15:19:42;;;;;;;12.77;5.60;;;;;;;;;;5045850;28;20572;-62
2021/12/25 15:22:09;;;;;;;12.75;5.40;;;;;;;;;;5048426;28;20035;-62
2021/12/25 15:24:35;;;;;;;9.68;5.38;;;;;;;;;;5045140;28;20110;-62
2021/12/25 15:27:03;;;;;;;14.07;7.80;;;;;;;;;;5040904;28;20116;-62
2021/12/25 15:29:38;;;;;;;15.98;9.05;;;;;;;;;;5043780;28;20061;-62
2021/12/25 15:32:06;;;;;;;17.63;10.70;;;;;;;;;;5050894;28;20406;-62
2021/12/25 15:34:32;;;;;;;15.10;8.27;;;;;;;;;;5044966;28;20044;-62
2021/12/25 15:36:58;;;;;;;14.57;7.35;;;;;;;;;;5040661;28;20111;-62
2021/12/25 15:39:31;;;;;;;18.33;6.45;;;;;;;;;;5046284;28;20493;-62
2021/12/25 15:42:01;;;;;;;23.23;8.70;;;;;;;;;;5049351;28;20025;-62
2021/12/25 15:44:28;;;;;;;14.30;8.95;;;;;;;;;;5046108;28;20112;-62
2021/12/25 15:46:55;;;;;;;16.52;11.38;;;;;;;;;;5045597;28;20037;-62
2021/12/25 15:49:21;;;;;;;15.18;8.95;;;;;;;;;;5036695;28;20036;-62
2021/12/25 15:51:58;;;;;;;17.42;10.68;;;;;;;;;;5046330;28;20383;-62
2021/12/25 15:54:25;;;;;;;10.95;5.75;;;;;;;;;;5053897;28;20056;-62
2021/12/25 15:56:56;;;;;;;12.30;5.03;;;;;;;;;;5044964;28;20105;-62
2021/12/25 15:59:24;;;;;;;9.68;7.10;;;;;;;;;;5045522;28;20032;-62
2021/12/25 16:01:50;;;;;;;11.52;7.07;;;;;;;;;;5041970;28;20013;-62
2021/12/25 16:04:16;;;;;;;12.63;7.13;;;;;;;;;;5043705;28;20031;-70
2021/12/25 16:06:42;;;;;;;11.65;5.05;;;;;;;;;;5038491;28;20048;-69
2021/12/25 16:09:08;;;;;;;14.15;7.25;;;;;;;;;;5050002;28;20103;-63
2021/12/25 16:11:34;;;;;;;21.05;10.07;;;;;;;;;;5054361;28;20078;-69
2021/12/25 16:14:02;;;;;;;65.07;30.13;;;;;;;;;;5052664;28;20030;-71
2021/12/25 16:16:29;;;;;;;131.10;57.80;;;;;;;;;;5045943;28;20029;-75
2021/12/25 16:18:55;;;;;;;56.47;28.30;;;;;;;;;;5053170;28;20542;-73
2021/12/25 16:21:22;;;;;;;60.20;29.50;;;;;;;;;;5054072;28;20049;-69